Архив погоды в Чауне

Метеограмма Чаун
Понедельник, 17 Июня
Время местн. Темп Ветер Видим Явления Облачность нижн/средн/верх Атм. давл. Влжн Точка росы ВНГО R Сост. почвы Tg s
Напр Скр Прв ур.ст ур.м изм
12:00 +18.5° З,С-З 2 4 более 50 км - облачно с прояснениями 761 762 -0.2 52% +8.6° 1 км - - - -
09:00 +16.6° З 2 4 более 50 км - ясно 762 762 +0.2 65% +9.9° более 2.5 км 0 Влажная (без луж) +7° -
06:00 +12° С 1 5 более 50 км - ясно 761 762 +0.7 69% +6.5° более 2.5 км - - - -
03:00 +8.7° З 4 6 более 50 км - ясно 761 761 0 89% +7° более 2.5 км - - - -
00:00 +9.5° З 4 6 более 50 км - ясно 761 761 0 87% +7.4° более 2.5 км - - - -
Воскресенье, 16 Июня
Время местн. Темп Ветер Видим Явления Облачность нижн/средн/верх Атм. давл. Влжн Точка росы ВНГО R Сост. почвы Tg s
Напр Скр Прв ур.ст ур.м изм
21:00 +12.8° С 4 13 более 50 км - переменная облачность 761 761 +0.2 64% +6.1° более 2.5 км 0 - - -
18:00 +17.8° С,С-З 8 12 более 50 км - переменная облачность 760 761 -0.2 57% +9.2° более 2.5 км - - - -
15:00 +23.4° С 3 - 50 км - ясно 761 761 -0.8 48% +11.8° более 2.5 км - - - -
12:00 +26.1° З 2 5 более 50 км - ясно 761 762 -0.5 31% +7.8° более 2.5 км - - - -
09:00 +20.7° Ю 2 7 более 50 км - ясно 762 762 -0.3 48% +9.3° более 2.5 км 0 Влажная (без луж) +10° -
06:00 +12.9° Ю-В 4 5 более 50 км - ясно 762 763 0 78% +9.2° более 2.5 км - - - -
03:00 +13.6° В 4 6 более 50 км - ясно 762 763 -0.1 74% +9° более 2.5 км - - - -
00:00 +15.8° В,С-В 3 4 более 50 км - ясно 762 763 +0.2 74% +11.1° более 2.5 км - - - -
Суббота, 15 Июня
Время местн. Темп Ветер Видим Явления Облачность нижн/средн/верх Атм. давл. Влжн Точка росы ВНГО R Сост. почвы Tg s
Напр Скр Прв ур.ст ур.м изм
21:00 +20.8° С,С-В 3 5 более 50 км - ясно 762 762 +0.2 53% +11° более 2.5 км 0 - - -
18:00 +18.4° С 4 6 более 50 км - незначительная облачность 762 762 -0.3 60% +10.4° 1 км - - - -
15:00 +19.1° С 4 6 более 50 км - незначительная облачность 762 762 +0.1 61% +11.4° 1 км - - - -
12:00 +24.3° З,С-З 3 6 более 50 км - незначительная облачность 762 762 +0.2 47% +12.3° 1 км - - - -
09:00 +21.5° Ю-В 4 6 более 50 км - ясно 762 762 +0.6 42% +8.1° более 2.5 км 0 Влажная (без луж) +10° -
06:00 +15.3° Ю,Ю-В 5 7 более 50 км - переменная облачность 761 762 +0.9 66% +8.9° более 2.5 км - - - -
03:00 +13.6° Ю-В 5 7 более 50 км - переменная облачность 760 761 +0.6 70% +8.2° более 2.5 км - - - -
00:00 +15.3° В,Ю-В 5 5 более 50 км - переменная облачность 760 760 +0.8 70% +9.8° более 2.5 км - - - -
Пятница, 14 Июня
Время местн. Темп Ветер Видим Явления Облачность нижн/средн/верх Атм. давл. Влжн Точка росы ВНГО R Сост. почвы Tg s
Напр Скр Прв ур.ст ур.м изм
21:00 +21.5° В 3 5 более 50 км - переменная облачность 759 759 +0.5 46% +9.4° более 2.5 км 0 - - -
18:00 +25.7° В,С-В 3 5 более 50 км - переменная облачность 758 759 -0.1 26% +4.5° более 2.5 км - - - -
15:00 +25.6° С 3 5 более 50 км - переменная облачность 758 759 0 23% +2.9° более 2.5 км - - - -
12:00 +25.5° З,С-З 1 4 более 50 км - переменная облачность 758 759 +0.2 19% +0.4° более 2.5 км - - - -
09:00 +20.6° Ю 3 5 более 50 км - переменная облачность 758 759 +0.5 45% +8.4° более 2.5 км 0 Сырая (есть малые или большие лужи) +8° -